createdAt,value
2022-11-13T00:02:53.495Z,99032.47
2022-11-13T00:05:53.690Z,99018.34
2022-11-13T00:09:03.331Z,99020.09
2022-11-13T00:12:10.306Z,99032.22
2022-11-13T00:15:25.434Z,99032.72
2022-11-13T00:18:26.884Z,99020.38
2022-11-13T00:21:40.409Z,99039.38
2022-11-13T00:24:40.719Z,99040.78
2022-11-13T00:27:47.350Z,99041.28
2022-11-13T00:30:54.313Z,99050.00
2022-11-13T00:34:09.525Z,99060.84
2022-11-13T00:37:22.398Z,99063.25
2022-11-13T00:40:22.729Z,99054.47
2022-11-13T00:43:30.460Z,99055.31
2022-11-13T00:46:30.879Z,99060.75
2022-11-13T00:49:37.403Z,99054.28
2022-11-13T00:52:44.423Z,99058.44
2022-11-13T00:55:53.311Z,99060.16
2022-11-13T00:59:00.348Z,99064.44
2022-11-13T01:02:01.600Z,99065.56
2022-11-13T01:05:08.407Z,99065.47
2022-11-13T01:08:16.413Z,99073.16
2022-11-13T01:11:21.720Z,99070.13
2022-11-13T01:14:28.346Z,99080.50
2022-11-13T01:17:28.676Z,99074.38
2022-11-13T01:20:36.417Z,99063.81
2022-11-13T01:23:36.746Z,99064.91
2022-11-13T01:26:43.346Z,99064.94
2022-11-13T01:29:45.813Z,99061.16
2022-11-13T01:32:52.336Z,99054.47
2022-11-13T01:35:52.698Z,99061.53
2022-11-13T01:39:01.329Z,99061.16
2022-11-13T01:42:09.384Z,99064.13
2022-11-13T01:45:47.568Z,99079.09
2022-11-13T01:49:01.382Z,99078.97
2022-11-13T01:52:10.985Z,99077.47
2022-11-13T01:55:23.327Z,99077.88
2022-11-13T01:58:23.964Z,99093.53
2022-11-13T02:01:30.493Z,99095.06
2022-11-13T02:04:38.424Z,99101.75
2022-11-13T02:07:39.722Z,99104.72
2022-11-13T02:10:46.343Z,99099.94
2022-11-13T02:13:54.438Z,99110.06
2022-11-13T02:17:08.298Z,99102.91
2022-11-13T02:20:18.485Z,99104.06
2022-11-13T02:24:03.279Z,99115.41
2022-11-13T02:27:17.391Z,99124.78
2022-11-13T02:30:28.240Z,99134.41
2022-11-13T02:33:44.750Z,99135.09
2022-11-13T02:36:52.485Z,99138.00
2022-11-13T02:39:52.682Z,99148.41
2022-11-13T02:42:59.402Z,99140.81
2022-11-13T02:45:59.696Z,99138.44
2022-11-13T02:49:07.376Z,99151.06
2022-11-13T02:52:07.670Z,99145.91
2022-11-13T02:55:15.299Z,99155.03
2022-11-13T02:58:22.512Z,99157.47
2022-11-13T03:01:30.361Z,99156.94
2022-11-13T03:05:05.389Z,99154.25
2022-11-13T03:07:57.563Z,99164.09
2022-11-13T03:11:04.414Z,99154.59
2022-11-13T03:14:18.238Z,99153.31
2022-11-13T03:17:25.484Z,99164.00
2022-11-13T03:20:25.671Z,99157.22
2022-11-13T03:23:33.401Z,99168.66
2022-11-13T03:26:33.659Z,99175.78
2022-11-13T03:29:40.403Z,99175.75
2022-11-13T03:32:40.704Z,99173.84
2022-11-13T03:35:48.403Z,99180.06
2022-11-13T03:38:49.679Z,99180.53
2022-11-13T03:41:57.386Z,99175.72
2022-11-13T03:45:04.385Z,99176.72
2022-11-13T03:48:05.876Z,99188.53
2022-11-13T03:51:12.430Z,99189.19
2022-11-13T03:54:13.606Z,99191.41
2022-11-13T03:57:21.376Z,99187.88
2022-11-13T04:00:28.361Z,99183.66
2022-11-13T04:03:35.383Z,99185.34
2022-11-13T04:06:43.364Z,99176.72
2022-11-13T04:09:44.714Z,99178.06
2022-11-13T04:12:51.279Z,99182.63
2022-11-13T04:16:05.251Z,99179.09
2022-11-13T04:19:12.390Z,99176.41
2022-11-13T04:22:13.676Z,99186.91
2022-11-13T04:25:21.358Z,99184.56
2022-11-13T04:28:21.724Z,99183.66
2022-11-13T04:31:29.386Z,99180.84
2022-11-13T04:34:29.678Z,99180.78
2022-11-13T04:37:37.375Z,99182.56
2022-11-13T04:40:44.300Z,99190.34
2022-11-13T04:43:44.573Z,99190.13
2022-11-13T04:46:51.313Z,99189.66
2022-11-13T04:49:51.559Z,99188.44
2022-11-13T04:52:59.307Z,99180.31
2022-11-13T04:55:59.688Z,99178.56
2022-11-13T04:59:07.382Z,99190.47
2022-11-13T05:02:07.824Z,99192.66
2022-11-13T05:05:14.356Z,99185.03
2022-11-13T05:08:21.385Z,99184.22
2022-11-13T05:11:22.813Z,99193.19
2022-11-13T05:14:29.377Z,99187.34
2022-11-13T05:17:36.364Z,99187.81
2022-11-13T05:20:37.576Z,99172.66
2022-11-13T05:23:45.381Z,99162.22
2022-11-13T05:26:45.624Z,99158.50
2022-11-13T05:29:52.375Z,99168.72
2022-11-13T05:32:54.164Z,99160.06
2022-11-13T05:35:55.373Z,99153.19
2022-11-13T05:38:56.729Z,99148.41
2022-11-13T05:42:03.299Z,99143.13
2022-11-13T05:45:03.678Z,99138.13
2022-11-13T05:48:10.268Z,99122.91
2022-11-13T05:51:12.627Z,99133.31
2022-11-13T05:54:20.392Z,99114.63
2022-11-13T05:57:21.643Z,99110.56
2022-11-13T06:00:29.376Z,99111.22
2022-11-13T06:03:37.380Z,99103.00
2022-11-13T06:06:37.801Z,99102.59
2022-11-13T06:09:44.380Z,99096.09
2022-11-13T06:12:44.527Z,99095.22
2022-11-13T06:15:51.371Z,99092.53
2022-11-13T06:19:02.367Z,99094.59
2022-11-13T06:22:09.348Z,99092.44
2022-11-13T06:25:17.379Z,99083.28
2022-11-13T06:28:18.842Z,99086.44
2022-11-13T06:31:33.390Z,99080.06
2022-11-13T06:34:41.379Z,99079.56
2022-11-13T06:37:41.536Z,99070.75
2022-11-13T06:40:48.285Z,99058.28
2022-11-13T06:43:51.979Z,99061.00
2022-11-13T06:46:58.369Z,99054.38
2022-11-13T06:50:05.275Z,99047.63
2022-11-13T06:53:12.280Z,99038.31
2022-11-13T06:56:20.359Z,99037.19
2022-11-13T06:59:27.280Z,99032.00
2022-11-13T07:02:27.555Z,99021.56
2022-11-13T07:05:35.364Z,99025.72
2022-11-13T07:08:44.380Z,99010.06
2022-11-13T07:11:52.389Z,99011.50
2022-11-13T07:15:07.371Z,99002.94
2022-11-13T07:18:08.387Z,98999.50
2022-11-13T07:21:26.368Z,98994.47
2022-11-13T07:24:33.372Z,98994.63
2022-11-13T07:27:41.258Z,98993.19
2022-11-13T07:30:49.372Z,98989.75
2022-11-13T07:33:57.374Z,98988.31
2022-11-13T07:37:04.376Z,98970.28
2022-11-13T07:40:11.297Z,98973.22
2022-11-13T07:43:19.385Z,98967.03
2022-11-13T07:46:26.376Z,98957.91
2022-11-13T07:49:26.591Z,98963.53
2022-11-13T07:52:34.298Z,98959.34
2022-11-13T07:55:43.389Z,98946.59
2022-11-13T07:58:51.458Z,98946.09
2022-11-13T08:01:52.837Z,98942.69
2022-11-13T08:05:00.293Z,98935.09
2022-11-13T08:08:01.820Z,98932.59
2022-11-13T08:11:08.295Z,98924.84
2022-11-13T08:14:22.237Z,98923.50
2022-11-13T08:17:29.291Z,98920.28
2022-11-13T08:20:30.638Z,98926.91
2022-11-13T08:23:37.317Z,98911.16
2022-11-13T08:26:37.671Z,98915.69
2022-11-13T08:29:45.278Z,98906.19
2022-11-13T08:32:53.403Z,98894.66
2022-11-13T08:35:55.558Z,98893.66
2022-11-13T08:39:03.433Z,98881.38
2022-11-13T08:42:04.973Z,98886.19
2022-11-13T08:45:11.380Z,98882.41
2022-11-13T08:48:19.304Z,98875.97
2022-11-13T08:51:26.282Z,98874.63
2022-11-13T08:54:33.398Z,98871.81
2022-11-13T08:57:33.724Z,98872.06
2022-11-13T09:00:41.311Z,98866.00
2022-11-13T09:03:49.392Z,98860.28
2022-11-13T09:06:56.414Z,98855.38
2022-11-13T09:10:03.526Z,98853.50
2022-11-13T09:13:13.388Z,98859.13
2022-11-13T09:16:26.266Z,98859.38
2022-11-13T09:19:34.319Z,98858.53
2022-11-13T09:22:35.685Z,98859.03
2022-11-13T09:25:45.260Z,98863.59
2022-11-13T09:28:45.694Z,98852.00
2022-11-13T09:31:52.364Z,98851.91
2022-11-13T09:34:52.794Z,98848.09
2022-11-13T09:38:00.380Z,98853.25
2022-11-13T09:41:13.284Z,98844.03
2022-11-13T09:44:42.384Z,98844.03
2022-11-13T09:47:49.797Z,98837.03
2022-11-13T09:50:57.295Z,98829.31
2022-11-13T09:53:58.645Z,98827.03
2022-11-13T09:57:10.380Z,98822.94
2022-11-13T10:00:28.946Z,98821.16
2022-11-13T10:04:08.882Z,98815.47
2022-11-13T10:07:31.774Z,98815.34
2022-11-13T10:10:55.574Z,98807.38
2022-11-13T10:14:08.085Z,98811.75
2022-11-13T10:17:39.901Z,98809.97
2022-11-13T10:20:52.315Z,98817.13
2022-11-13T10:23:58.449Z,98820.03
2022-11-13T10:27:07.493Z,98820.34
2022-11-13T10:30:17.223Z,98814.47
2022-11-13T10:33:33.431Z,98817.00
2022-11-13T10:36:51.564Z,98807.28
2022-11-13T10:40:02.439Z,98811.00
2022-11-13T10:43:19.233Z,98806.63
2022-11-13T10:46:38.398Z,98807.19
2022-11-13T10:49:39.938Z,98810.06
2022-11-13T10:52:47.366Z,98812.59
2022-11-13T10:55:58.371Z,98809.00
2022-11-13T10:59:10.970Z,98809.63
2022-11-13T11:02:28.280Z,98808.25
2022-11-13T11:05:39.426Z,98799.16
2022-11-13T11:08:47.357Z,98798.25
2022-11-13T11:12:06.945Z,98797.47
2022-11-13T11:15:31.666Z,98803.47
2022-11-13T11:18:49.679Z,98798.28
2022-11-13T11:22:03.343Z,98799.16
2022-11-13T11:25:21.942Z,98793.16
2022-11-13T11:28:44.286Z,98797.38
2022-11-13T11:32:11.728Z,98791.41
2022-11-13T11:35:30.488Z,98788.91
2022-11-13T11:38:49.655Z,98782.81
2022-11-13T11:42:18.292Z,98778.66
2022-11-13T11:45:39.355Z,98773.16
2022-11-13T11:48:39.550Z,98774.88
2022-11-13T11:51:56.374Z,98778.78
2022-11-13T11:55:21.251Z,98777.66
2022-11-13T11:58:40.368Z,98777.56
2022-11-13T12:02:14.276Z,98765.78
2022-11-13T12:05:42.320Z,98762.13
2022-11-13T12:09:12.748Z,98770.09
2022-11-13T12:12:25.255Z,98766.44
2022-11-13T12:16:03.678Z,98774.34
2022-11-13T12:19:13.247Z,98780.72
2022-11-13T12:22:40.512Z,98783.25
2022-11-13T12:26:20.266Z,98791.06
2022-11-13T12:29:46.360Z,98790.97
2022-11-13T12:32:49.635Z,98798.97
2022-11-13T12:36:01.387Z,98808.41
2022-11-13T12:39:37.758Z,98818.00
2022-11-13T12:42:59.369Z,98817.78
2022-11-13T12:46:10.276Z,98820.50
2022-11-13T12:49:35.273Z,98816.66
2022-11-13T12:52:35.809Z,98816.41
2022-11-13T12:55:46.289Z,98818.47
2022-11-13T12:59:03.495Z,98827.16
2022-11-13T13:02:17.408Z,98829.59
2022-11-13T13:05:46.684Z,98840.41
2022-11-13T13:08:58.376Z,98846.03
2022-11-13T13:12:33.365Z,98851.34
2022-11-13T13:15:52.166Z,98851.84
2022-11-13T13:18:53.293Z,98854.69
2022-11-13T13:21:54.683Z,98856.56
2022-11-13T13:25:14.458Z,98863.78
2022-11-13T13:28:22.371Z,98860.47
2022-11-13T13:31:51.408Z,98856.66
2022-11-13T13:35:00.557Z,98861.88
2022-11-13T13:38:29.720Z,98872.59
2022-11-13T13:41:32.109Z,98875.41
2022-11-13T13:44:47.255Z,98867.78
2022-11-13T13:47:50.694Z,98876.56
2022-11-13T13:51:02.248Z,98883.78
2022-11-13T13:54:08.287Z,98877.75
2022-11-13T13:57:16.281Z,98879.22
2022-11-13T14:00:27.433Z,98881.66
2022-11-13T14:03:30.373Z,98881.28
2022-11-13T14:06:37.401Z,98881.81
2022-11-13T14:09:46.411Z,98887.00
2022-11-13T14:12:48.438Z,98899.66
2022-11-13T14:15:56.388Z,98905.47
2022-11-13T14:19:13.333Z,98910.84
2022-11-13T14:22:25.365Z,98905.50
2022-11-13T14:25:29.745Z,98901.66
2022-11-13T14:28:38.353Z,98913.09
2022-11-13T14:31:38.695Z,98903.97
2022-11-13T14:34:46.435Z,98912.50
2022-11-13T14:37:49.523Z,98913.63
2022-11-13T14:41:02.370Z,98923.44
2022-11-13T14:44:03.023Z,98915.88
2022-11-13T14:47:34.358Z,98918.34
2022-11-13T14:50:37.227Z,98913.16
2022-11-13T14:53:56.382Z,98912.91
2022-11-13T14:56:56.742Z,98915.69
2022-11-13T15:00:03.483Z,98918.16
2022-11-13T15:03:14.387Z,98923.94
2022-11-13T15:06:29.741Z,98920.13
2022-11-13T15:09:38.259Z,98917.41
2022-11-13T15:12:45.714Z,98911.94
2022-11-13T15:16:00.247Z,98919.03
2022-11-13T15:19:11.286Z,98919.59
2022-11-13T15:22:26.541Z,98921.56
2022-11-13T15:25:35.337Z,98924.84
2022-11-13T15:28:35.697Z,98928.63
2022-11-13T15:31:46.278Z,98927.03
2022-11-13T15:34:46.808Z,98926.25
2022-11-13T15:37:53.327Z,98930.03
2022-11-13T15:40:53.773Z,98924.91
2022-11-13T15:44:03.322Z,98924.59
2022-11-13T15:47:03.664Z,98921.91
2022-11-13T15:50:14.944Z,98916.72
2022-11-13T15:53:26.518Z,98915.34
2022-11-13T15:56:26.906Z,98913.19
2022-11-13T15:59:34.257Z,98910.44
2022-11-13T16:02:36.507Z,98913.72
2022-11-13T16:05:43.297Z,98909.66
2022-11-13T16:08:45.183Z,98913.44
2022-11-13T16:11:52.343Z,98919.72
2022-11-13T16:15:07.176Z,98915.38
2022-11-13T16:18:29.341Z,98911.00
2022-11-13T16:21:37.319Z,98907.44
2022-11-13T16:24:37.614Z,98919.78
2022-11-13T16:27:44.317Z,98911.00
2022-11-13T16:30:45.641Z,98911.59
2022-11-13T16:33:53.262Z,98906.41
2022-11-13T16:36:54.639Z,98914.84
2022-11-13T16:40:01.344Z,98912.13
2022-11-13T16:43:02.829Z,98911.31
2022-11-13T16:46:09.275Z,98917.63
2022-11-13T16:49:09.783Z,98908.09
2022-11-13T16:52:16.325Z,98907.25
2022-11-13T16:55:23.323Z,98902.91
2022-11-13T16:58:30.324Z,98906.72
2022-11-13T17:01:38.353Z,98917.06
2022-11-13T17:04:39.519Z,98911.06
2022-11-13T17:07:46.231Z,98916.22
2022-11-13T17:10:47.686Z,98913.72
2022-11-13T17:13:55.339Z,98913.72
2022-11-13T17:17:01.802Z,98909.06
2022-11-13T17:20:02.341Z,98901.69
2022-11-13T17:23:09.350Z,98894.56
2022-11-13T17:26:11.742Z,98891.28
2022-11-13T17:29:18.339Z,98887.44
2022-11-13T17:32:18.642Z,98901.13
2022-11-13T17:35:25.353Z,98907.66
2022-11-13T17:38:26.055Z,98895.09
2022-11-13T17:41:33.324Z,98898.91
2022-11-13T17:44:33.577Z,98898.88
2022-11-13T17:47:42.338Z,98911.72
2022-11-13T17:50:42.812Z,98918.78
2022-11-13T17:53:50.333Z,98925.59
2022-11-13T17:56:50.757Z,98949.34
2022-11-13T17:59:58.327Z,98957.75
2022-11-13T18:02:58.790Z,98954.47
2022-11-13T18:06:05.311Z,98963.47
2022-11-13T18:09:12.311Z,98960.22
2022-11-13T18:12:12.712Z,98981.81
2022-11-13T18:15:20.318Z,98982.59
2022-11-13T18:18:28.721Z,98985.59
2022-11-13T18:21:32.312Z,98979.09
2022-11-13T18:24:39.474Z,98987.81
2022-11-13T18:27:47.340Z,98983.19
2022-11-13T18:30:50.774Z,98987.25
2022-11-13T18:34:04.376Z,98982.34
2022-11-13T18:37:05.778Z,98977.94
2022-11-13T18:40:12.345Z,98983.13
2022-11-13T18:43:20.336Z,98974.13
2022-11-13T18:46:22.662Z,98975.97
2022-11-13T18:49:29.337Z,98971.06
2022-11-13T18:52:29.787Z,98959.31
2022-11-13T18:55:36.341Z,98977.38
2022-11-13T18:58:44.346Z,98978.72
2022-11-13T19:01:44.753Z,98974.34
2022-11-13T19:04:52.335Z,98971.66
2022-11-13T19:07:52.523Z,98974.88
2022-11-13T19:10:59.313Z,98985.59
2022-11-13T19:13:59.924Z,98987.81
2022-11-13T19:17:06.510Z,99001.78
2022-11-13T19:20:08.721Z,98994.06
2022-11-13T19:23:15.251Z,98991.56
2022-11-13T19:26:22.244Z,98975.16
2022-11-13T19:29:22.626Z,98971.31
2022-11-13T19:32:29.245Z,98980.63
2022-11-13T19:35:29.741Z,98990.00
2022-11-13T19:38:36.251Z,99012.94
2022-11-13T19:41:37.598Z,99028.22
2022-11-13T19:44:44.231Z,99036.16
2022-11-13T19:47:52.370Z,99043.06
2022-11-13T19:50:53.542Z,99043.38
2022-11-13T19:54:01.234Z,99027.84
2022-11-13T19:57:01.490Z,99017.22
2022-11-13T20:00:08.229Z,99000.06
2022-11-13T20:03:09.445Z,98987.50
2022-11-13T20:06:16.217Z,98978.75
2022-11-13T20:09:16.644Z,98989.69
2022-11-13T20:12:24.238Z,98980.94
2022-11-13T20:15:25.112Z,98999.22
2022-11-13T20:18:32.343Z,98997.03
2022-11-13T20:21:32.666Z,98998.13
2022-11-13T20:24:39.227Z,99009.84
2022-11-13T20:27:47.449Z,99024.59
2022-11-13T20:30:47.653Z,99050.22
2022-11-13T20:33:56.215Z,99062.25
2022-11-13T20:36:56.622Z,99086.22
2022-11-13T20:40:05.304Z,99100.16
2022-11-13T20:43:12.204Z,99111.38
2022-11-13T20:46:21.329Z,99089.78
2022-11-13T20:49:23.200Z,99090.06
2022-11-13T20:52:31.241Z,99088.41
2022-11-13T20:55:38.223Z,99084.50
2022-11-13T20:58:39.101Z,99072.25
2022-11-13T21:01:46.301Z,99074.09
2022-11-13T21:04:47.540Z,99068.69
2022-11-13T21:07:54.216Z,99058.63
2022-11-13T21:10:54.546Z,99039.28
2022-11-13T21:14:03.227Z,99036.25
2022-11-13T21:17:17.772Z,99031.91
2022-11-13T21:20:18.648Z,99006.78
2022-11-13T21:23:25.326Z,99007.13
2022-11-13T21:26:33.239Z,99018.03
2022-11-13T21:29:40.285Z,99010.09
2022-11-13T21:32:41.514Z,99000.03
2022-11-13T21:35:48.271Z,99014.38
2022-11-13T21:38:51.734Z,99025.28
2022-11-13T21:41:58.186Z,99020.66
2022-11-13T21:44:59.512Z,99052.53
2022-11-13T21:48:08.233Z,99053.44
2022-11-13T21:51:15.307Z,99046.84
2022-11-13T21:54:16.688Z,99047.19
2022-11-13T21:57:24.303Z,99048.84
2022-11-13T22:00:25.575Z,99050.69
2022-11-13T22:03:32.227Z,99055.50
2022-11-13T22:06:40.724Z,99053.75
2022-11-13T22:09:48.324Z,99050.44
2022-11-13T22:12:48.581Z,99049.47
2022-11-13T22:15:55.202Z,99061.53
2022-11-13T22:19:11.642Z,99058.25
2022-11-13T22:22:11.449Z,99077.81
2022-11-13T22:25:19.222Z,99094.03
2022-11-13T22:28:20.500Z,99097.59
2022-11-13T22:31:47.196Z,99100.63
2022-11-13T22:34:48.701Z,99079.50
2022-11-13T22:37:55.196Z,99063.16
2022-11-13T22:40:55.925Z,99052.13
2022-11-13T22:44:08.279Z,99056.69
2022-11-13T22:47:09.522Z,99042.09
2022-11-13T22:50:16.289Z,99032.72
2022-11-13T22:53:16.594Z,99036.50
2022-11-13T22:56:28.319Z,99035.91
2022-11-13T22:59:35.257Z,99030.81
2022-11-13T23:02:47.104Z,99028.38
2022-11-13T23:05:55.205Z,99025.28
2022-11-13T23:08:56.551Z,99021.81
2022-11-13T23:12:03.285Z,99032.78
2022-11-13T23:15:10.303Z,99016.34
2022-11-13T23:18:16.709Z,99021.88
2022-11-13T23:21:19.316Z,99022.66
2022-11-13T23:24:26.209Z,99022.88
2022-11-13T23:27:33.289Z,99012.94
2022-11-13T23:30:34.481Z,99014.22
2022-11-13T23:33:42.215Z,99009.25
2022-11-13T23:36:43.439Z,99026.31
2022-11-13T23:39:51.295Z,99041.22
2022-11-13T23:42:55.958Z,99039.81
2022-11-13T23:46:03.222Z,99039.31
2022-11-13T23:49:10.314Z,99066.81
2022-11-13T23:52:10.624Z,99082.56
2022-11-13T23:55:18.289Z,99127.91
2022-11-13T23:58:22.172Z,99149.75
